createdAt,value
2023-04-15T00:01:03.960Z,14.40
2023-04-15T00:04:41.931Z,17.00
2023-04-15T00:08:19.655Z,16.30
2023-04-15T00:11:57.756Z,16.60
2023-04-15T00:15:34.510Z,15.90
2023-04-15T00:19:12.996Z,18.40
2023-04-15T00:22:49.821Z,17.60
2023-04-15T00:26:28.554Z,17.10
2023-04-15T00:30:05.934Z,17.50
2023-04-15T00:33:42.900Z,15.50
2023-04-15T00:37:20.572Z,16.10
2023-04-15T00:40:59.305Z,17.70
2023-04-15T00:44:36.149Z,16.00
2023-04-15T00:48:14.153Z,16.60
2023-04-15T00:51:51.640Z,15.50
2023-04-15T00:55:29.335Z,19.60
2023-04-15T00:59:07.337Z,16.00
2023-04-15T01:02:45.116Z,17.60
2023-04-15T01:06:22.398Z,16.40
2023-04-15T01:10:00.199Z,18.60
2023-04-15T01:13:37.649Z,18.00
2023-04-15T01:17:15.487Z,15.80
2023-04-15T01:20:53.311Z,16.30
2023-04-15T01:24:31.922Z,15.40
2023-04-15T01:28:09.696Z,14.80
2023-04-15T01:31:53.791Z,16.30
2023-04-15T01:35:24.198Z,19.00
2023-04-15T01:39:01.788Z,17.30
2023-04-15T01:42:38.988Z,17.80
2023-04-15T01:46:16.984Z,15.90
2023-04-15T01:49:54.050Z,17.00
2023-04-15T01:53:32.488Z,17.80
2023-04-15T01:57:10.070Z,18.50
2023-04-15T02:00:47.361Z,19.50
2023-04-15T02:04:25.125Z,18.90
2023-04-15T02:08:03.882Z,20.00
2023-04-15T02:11:40.483Z,19.40
2023-04-15T02:15:18.234Z,16.80
2023-04-15T02:18:55.902Z,19.00
2023-04-15T02:22:33.760Z,15.80
2023-04-15T02:26:11.142Z,17.70
2023-04-15T02:29:51.192Z,15.60
2023-04-15T02:33:26.365Z,17.60
2023-04-15T02:37:04.809Z,15.80
2023-04-15T02:40:42.343Z,18.30
2023-04-15T02:44:23.704Z,17.20
2023-04-15T02:47:56.961Z,19.10
2023-04-15T02:51:54.839Z,17.10
2023-04-15T02:55:12.744Z,18.70
2023-04-15T02:58:50.858Z,17.00
2023-04-15T03:02:28.013Z,16.10
2023-04-15T03:06:05.969Z,17.90
2023-04-15T03:09:43.095Z,15.90
2023-04-15T03:13:21.563Z,17.20
2023-04-15T03:16:59.683Z,15.70
2023-04-15T03:20:36.633Z,16.10
2023-04-15T03:24:13.944Z,17.60
2023-04-15T03:27:52.129Z,14.30
2023-04-15T03:31:29.285Z,16.60
2023-04-15T03:35:07.465Z,15.60
2023-04-15T03:38:44.429Z,17.60
2023-04-15T03:42:22.387Z,15.80
2023-04-15T03:46:01.856Z,15.70
2023-04-15T03:49:37.918Z,15.50
2023-04-15T03:53:16.164Z,16.80
2023-04-15T03:56:53.236Z,16.20
2023-04-15T04:00:30.778Z,16.40
2023-04-15T04:04:08.665Z,16.90
2023-04-15T04:07:46.378Z,14.30
2023-04-15T04:11:23.940Z,15.30
2023-04-15T04:15:01.809Z,17.70
2023-04-15T04:18:39.384Z,16.90
2023-04-15T04:22:16.975Z,16.20
2023-04-15T04:25:54.730Z,13.90
2023-04-15T04:29:32.119Z,13.60
2023-04-15T04:33:10.774Z,14.50
2023-04-15T04:36:47.290Z,15.10
2023-04-15T04:40:25.954Z,16.10
2023-04-15T04:44:02.810Z,14.20
2023-04-15T04:47:40.910Z,14.80
2023-04-15T04:51:18.596Z,15.50
2023-04-15T04:54:55.859Z,18.80
2023-04-15T04:58:33.452Z,15.00
2023-04-15T05:02:11.410Z,15.00
2023-04-15T05:05:49.450Z,15.80
2023-04-15T05:09:26.871Z,16.30
2023-04-15T05:13:04.298Z,13.20
2023-04-15T05:16:44.049Z,16.00
2023-04-15T05:20:19.986Z,14.30
2023-04-15T05:23:57.285Z,15.60
2023-04-15T05:27:34.915Z,16.40
2023-04-15T05:31:12.665Z,15.00
2023-04-15T05:34:50.579Z,15.20
2023-04-15T05:38:28.374Z,15.10
2023-04-15T05:42:06.309Z,12.60
2023-04-15T05:45:43.321Z,14.00
2023-04-15T05:49:21.349Z,14.40
2023-04-15T05:52:58.651Z,14.80
2023-04-15T05:56:36.221Z,13.50
2023-04-15T06:00:15.410Z,13.70
2023-04-15T06:03:52.119Z,15.60
2023-04-15T06:07:29.692Z,12.80
2023-04-15T06:11:07.439Z,11.80
2023-04-15T06:14:44.682Z,13.90
2023-04-15T06:18:22.400Z,13.10
2023-04-15T06:22:00.521Z,12.20
2023-04-15T06:25:37.637Z,13.60
2023-04-15T06:29:15.589Z,11.50
2023-04-15T06:32:53.634Z,13.10
2023-04-15T06:36:31.236Z,12.70
2023-04-15T06:40:10.220Z,11.20
2023-04-15T06:43:46.329Z,12.90
2023-04-15T06:47:23.668Z,13.50
2023-04-15T06:51:02.088Z,13.30
2023-04-15T06:54:39.484Z,13.30
2023-04-15T06:58:16.544Z,11.00
2023-04-15T07:01:54.781Z,12.10
2023-04-15T07:05:32.581Z,11.80
2023-04-15T07:09:10.034Z,11.10
2023-04-15T07:12:49.574Z,11.70
2023-04-15T07:16:26.616Z,11.30
2023-04-15T07:20:06.268Z,11.20
2023-04-15T07:23:40.517Z,10.70
2023-04-15T07:27:18.240Z,10.30
2023-04-15T07:30:57.350Z,10.10
2023-04-15T07:34:33.366Z,12.30
2023-04-15T07:38:13.636Z,10.60
2023-04-15T07:41:49.493Z,9.10
2023-04-15T07:45:27.558Z,10.10
2023-04-15T07:49:04.856Z,9.90
2023-04-15T07:52:42.359Z,10.60
2023-04-15T07:56:19.810Z,8.20
2023-04-15T07:59:57.269Z,10.00
2023-04-15T08:03:35.484Z,9.10
2023-04-15T08:07:12.867Z,9.40
2023-04-15T08:10:52.475Z,11.40
2023-04-15T08:14:28.141Z,10.80
2023-04-15T08:18:05.448Z,10.00
2023-04-15T08:21:43.677Z,10.90
2023-04-15T08:25:21.321Z,10.70
2023-04-15T08:28:59.075Z,10.80
2023-04-15T08:32:55.457Z,11.00
2023-04-15T08:36:14.996Z,10.20
2023-04-15T08:39:51.536Z,13.70
2023-04-15T08:43:34.737Z,11.00
2023-04-15T08:47:09.417Z,10.90
2023-04-15T08:50:45.621Z,11.10
2023-04-15T08:54:23.098Z,9.60
2023-04-15T08:58:02.532Z,10.50
2023-04-15T09:01:38.654Z,11.10
2023-04-15T09:05:16.921Z,10.80
2023-04-15T09:08:53.292Z,11.40
2023-04-15T09:12:31.777Z,11.00
2023-04-15T09:16:09.562Z,10.50
2023-04-15T09:19:46.394Z,10.40
2023-04-15T09:23:23.936Z,10.10
2023-04-15T09:27:02.627Z,12.20
2023-04-15T09:30:39.302Z,10.70
2023-04-15T09:34:18.104Z,10.30
2023-04-15T09:38:10.012Z,10.90
2023-04-15T09:41:32.435Z,10.40
2023-04-15T09:45:12.295Z,11.40
2023-04-15T09:48:48.423Z,11.10
2023-04-15T09:52:25.555Z,9.90
2023-04-15T09:56:03.483Z,10.30
2023-04-15T09:59:41.062Z,10.70
2023-04-15T10:03:23.802Z,10.30
2023-04-15T10:06:57.277Z,11.20
2023-04-15T10:10:34.604Z,9.50
2023-04-15T10:14:13.877Z,10.70
2023-04-15T10:17:53.753Z,10.60
2023-04-15T10:21:28.675Z,10.70
2023-04-15T10:25:07.366Z,11.80
2023-04-15T10:28:42.235Z,10.50
2023-04-15T10:32:22.179Z,10.20
2023-04-15T10:35:58.502Z,10.90
2023-04-15T10:39:38.442Z,10.30
2023-04-15T10:43:27.472Z,10.90
2023-04-15T10:46:52.855Z,11.40
2023-04-15T10:50:32.855Z,10.30
2023-04-15T10:54:10.651Z,10.50
2023-04-15T10:57:44.423Z,11.00
2023-04-15T11:01:23.600Z,9.40
2023-04-15T11:04:59.339Z,9.90
2023-04-15T11:08:57.069Z,11.50
2023-04-15T11:12:14.379Z,10.20
2023-04-15T11:15:55.763Z,9.50
2023-04-15T11:19:37.431Z,10.10
2023-04-15T11:23:32.095Z,10.20
2023-04-15T11:26:45.062Z,9.60
2023-04-15T11:30:28.910Z,9.10
2023-04-15T11:34:01.604Z,11.30
2023-04-15T11:37:38.516Z,9.90
2023-04-15T11:41:15.649Z,9.30
2023-04-15T11:45:18.368Z,10.80
2023-04-15T11:48:33.223Z,10.00
2023-04-15T11:52:12.648Z,11.10
2023-04-15T11:55:48.833Z,9.70
2023-04-15T11:59:28.186Z,10.80
2023-04-15T12:03:26.501Z,10.30
2023-04-15T12:06:41.836Z,10.80
2023-04-15T12:10:19.091Z,10.70
2023-04-15T12:13:57.767Z,10.90
2023-04-15T12:17:51.031Z,11.00
2023-04-15T12:21:12.297Z,10.90
2023-04-15T12:24:57.581Z,9.50
2023-04-15T12:28:31.032Z,9.40
2023-04-15T12:32:06.829Z,9.20
2023-04-15T12:35:42.639Z,10.40
2023-04-15T12:39:30.469Z,10.50
2023-04-15T12:42:57.674Z,9.60
2023-04-15T12:46:35.804Z,9.00
2023-04-15T12:50:13.476Z,9.50
2023-04-15T12:53:51.360Z,9.10
2023-04-15T12:57:28.951Z,10.20
2023-04-15T13:01:07.046Z,11.30
2023-04-15T13:04:44.298Z,9.00
2023-04-15T13:08:21.882Z,9.80
2023-04-15T13:11:59.663Z,9.30
2023-04-15T13:15:37.249Z,9.50
2023-04-15T13:19:14.937Z,10.20
2023-04-15T13:22:53.425Z,8.90
2023-04-15T13:26:31.418Z,9.10
2023-04-15T13:30:08.691Z,9.10
2023-04-15T13:33:45.529Z,9.80
2023-04-15T13:37:30.634Z,9.70
2023-04-15T13:41:01.205Z,9.70
2023-04-15T13:44:38.757Z,9.60
2023-04-15T13:48:16.362Z,10.40
2023-04-15T13:51:54.270Z,9.30
2023-04-15T13:55:31.901Z,10.20
2023-04-15T13:59:09.611Z,11.60
2023-04-15T14:02:47.220Z,10.10
2023-04-15T14:06:25.090Z,9.90
2023-04-15T14:10:02.424Z,10.80
2023-04-15T14:13:39.908Z,10.20
2023-04-15T14:17:17.750Z,10.50
2023-04-15T14:20:55.677Z,9.10
2023-04-15T14:24:33.196Z,9.80
2023-04-15T14:28:11.102Z,11.00
2023-04-15T14:32:11.552Z,10.60
2023-04-15T14:35:26.885Z,10.60
2023-04-15T14:39:04.372Z,9.80
2023-04-15T14:42:41.623Z,10.40
2023-04-15T14:46:19.092Z,10.60
2023-04-15T14:49:57.114Z,10.60
2023-04-15T14:53:34.926Z,11.00
2023-04-15T14:57:12.568Z,9.40
2023-04-15T15:00:50.109Z,10.00
2023-04-15T15:04:27.968Z,9.40
2023-04-15T15:08:07.822Z,9.70
2023-04-15T15:11:42.976Z,10.40
2023-04-15T15:18:58.119Z,11.20
2023-04-15T15:22:36.156Z,10.40
2023-04-15T15:26:13.709Z,10.90
2023-04-15T15:29:51.638Z,9.40
2023-04-15T15:33:30.233Z,10.40
2023-04-15T15:37:06.568Z,10.10
2023-04-15T15:40:44.482Z,11.50
2023-04-15T15:44:21.971Z,11.80
2023-04-15T15:48:00.492Z,10.30
2023-04-15T15:51:37.534Z,14.70
2023-04-15T15:55:15.093Z,15.80
2023-04-15T15:58:52.941Z,11.50
2023-04-15T16:02:59.842Z,10.50
2023-04-15T16:06:08.284Z,8.70
2023-04-15T16:09:46.271Z,9.10
2023-04-15T16:13:23.712Z,12.10
2023-04-15T16:17:01.450Z,11.00
2023-04-15T16:20:39.821Z,11.70
2023-04-15T16:24:17.287Z,10.20
2023-04-15T16:28:03.530Z,9.30
2023-04-15T16:31:32.739Z,9.30
2023-04-15T16:35:10.369Z,9.10
2023-04-15T16:38:48.963Z,9.70
2023-04-15T16:42:25.180Z,11.60
2023-04-15T16:46:02.887Z,10.00
2023-04-15T16:49:40.436Z,15.50
2023-04-15T16:53:18.304Z,28.80
2023-04-15T16:56:59.419Z,15.40
2023-04-15T17:00:33.478Z,12.50
2023-04-15T17:04:11.613Z,9.90
2023-04-15T17:07:48.676Z,10.60
2023-04-15T17:11:28.334Z,9.40
2023-04-15T17:15:04.269Z,11.60
2023-04-15T17:18:41.849Z,9.60
2023-04-15T17:22:19.983Z,11.20
2023-04-15T17:25:56.899Z,10.30
2023-04-15T17:29:34.515Z,11.40
2023-04-15T17:33:59.129Z,13.30
2023-04-15T17:36:51.561Z,19.60
2023-04-15T17:40:46.565Z,9.60
2023-04-15T17:44:05.329Z,9.80
2023-04-15T17:47:43.286Z,10.80
2023-04-15T17:51:22.075Z,9.90
2023-04-15T17:54:58.764Z,13.70
2023-04-15T17:58:35.927Z,14.90
2023-04-15T18:02:14.880Z,18.20
2023-04-15T18:05:51.650Z,14.90
2023-04-15T18:09:29.481Z,17.50
2023-04-15T18:13:07.123Z,12.30
2023-04-15T18:16:44.702Z,12.60
2023-04-15T18:20:22.264Z,10.50
2023-04-15T18:23:59.872Z,10.60
2023-04-15T18:27:39.417Z,13.60
2023-04-15T18:31:15.192Z,10.30
2023-04-15T18:34:53.144Z,11.10
2023-04-15T18:38:30.836Z,10.60
2023-04-15T18:42:08.387Z,11.10
2023-04-15T18:45:46.086Z,9.80
2023-04-15T18:49:27.565Z,16.10
2023-04-15T18:53:01.357Z,17.20
2023-04-15T18:56:39.373Z,15.50
2023-04-15T19:00:17.546Z,10.80
2023-04-15T19:03:54.089Z,10.70
2023-04-15T19:07:32.200Z,8.20
2023-04-15T19:11:09.527Z,9.90
2023-04-15T19:14:47.447Z,10.50
2023-04-15T19:18:24.992Z,10.50
2023-04-15T19:22:03.895Z,10.00
2023-04-15T19:25:40.240Z,15.30
2023-04-15T19:29:18.704Z,11.80
2023-04-15T19:32:55.926Z,14.40
2023-04-15T19:36:33.462Z,11.30
2023-04-15T19:40:11.076Z,14.50
2023-04-15T19:43:48.603Z,12.40
2023-04-15T19:47:27.561Z,12.70
2023-04-15T19:51:04.587Z,45.80
2023-04-15T19:54:42.123Z,8.20
2023-04-15T19:58:19.884Z,9.10
2023-04-15T20:01:57.609Z,9.70
2023-04-15T20:05:34.741Z,10.70
2023-04-15T20:09:12.524Z,6.60
2023-04-15T20:12:52.801Z,13.20
2023-04-15T20:16:27.966Z,8.70
2023-04-15T20:20:07.640Z,8.70
2023-04-15T20:23:43.323Z,11.20
2023-04-15T20:27:21.403Z,10.20
2023-04-15T20:31:00.548Z,10.50
2023-04-15T20:34:36.690Z,9.80
2023-04-15T20:38:16.543Z,9.50
2023-04-15T20:41:51.354Z,9.70
2023-04-15T20:45:29.450Z,10.50
2023-04-15T20:49:07.234Z,9.30
2023-04-15T20:52:44.392Z,14.90
2023-04-15T20:56:22.242Z,12.50
2023-04-15T20:59:59.678Z,10.40
2023-04-15T21:03:38.081Z,14.70
2023-04-15T21:07:16.139Z,10.80
2023-04-15T21:10:53.105Z,12.10
2023-04-15T21:14:30.600Z,9.90
2023-04-15T21:18:08.315Z,10.20
2023-04-15T21:21:46.416Z,10.50
2023-04-15T21:25:23.593Z,14.70
2023-04-15T21:29:01.410Z,12.20
2023-04-15T21:32:39.051Z,8.30
2023-04-15T21:36:16.702Z,8.00
2023-04-15T21:39:54.275Z,8.10
2023-04-15T21:43:32.279Z,8.20
2023-04-15T21:47:09.498Z,8.60
2023-04-15T21:50:47.357Z,7.10
2023-04-15T21:54:24.981Z,7.80
2023-04-15T21:58:02.654Z,8.00
2023-04-15T22:01:40.157Z,8.20
2023-04-15T22:05:18.725Z,7.50
2023-04-15T22:08:57.498Z,9.00
2023-04-15T22:12:33.866Z,8.90
2023-04-15T22:16:11.854Z,7.60
2023-04-15T22:19:51.720Z,6.80
2023-04-15T22:23:26.625Z,6.50
2023-04-15T22:27:04.578Z,5.40
2023-04-15T22:30:42.965Z,6.70
2023-04-15T22:34:22.482Z,5.10
2023-04-15T22:37:57.086Z,4.00
2023-04-15T22:41:34.734Z,4.70
2023-04-15T22:45:12.864Z,5.00
2023-04-15T22:48:50.652Z,4.80
2023-04-15T22:52:30.945Z,5.40
2023-04-15T22:56:05.880Z,5.50
2023-04-15T22:59:43.202Z,5.50
2023-04-15T23:03:21.148Z,5.20
2023-04-15T23:06:58.579Z,4.60
2023-04-15T23:10:36.534Z,5.40
2023-04-15T23:14:13.662Z,4.60
2023-04-15T23:17:51.570Z,4.40
2023-04-15T23:21:31.378Z,5.70
2023-04-15T23:25:07.024Z,5.60
2023-04-15T23:28:44.207Z,4.70
2023-04-15T23:32:22.102Z,5.50
2023-04-15T23:35:59.497Z,6.30
2023-04-15T23:39:37.654Z,13.80
2023-04-15T23:43:15.099Z,5.90
2023-04-15T23:46:53.342Z,5.40
2023-04-15T23:50:32.736Z,5.50
2023-04-15T23:54:08.294Z,4.40
2023-04-15T23:57:46.176Z,4.60
